• Join FlightAware (Why Join?)
  • Login
  • US Flag 
05:19AM EDT


 

Airport Tracker/Info


-or-


 

Live Flight TrackerFlight Track Log ✈ N244DM ✈ 14-Jun-2013 ✈ KRYY - KSVH

Flight Track Log - Related Links

Times and Time Zones

All times are in EDT time to prevent confusion due to time zone crossing. See the N244DM flight status page for this flight to view local times or setup timezone preferences in your user account.

Time Position Orientation Groundspeed Altitude Reporting Facility
EDT Latitude Longitude Course Direction KTS MPH feet Rate Location/Type
01:16PM 34.1333 -84.6667 338° Northwest 133 153 3,900  Level Atlanta TRACON
01:17PM 34.1667 -84.6667 360° North 129 148 4,400 600 Climbing Atlanta TRACON
01:18PM 34.1500 -84.6333 121° Southeast 140 161 5,200 660 Climbing Atlanta TRACON
01:19PM 34.1333 -84.5833 112° Southeast 146 168 5,800 540 Climbing Atlanta TRACON
01:20PM 34.1000 -84.5500 140° Southeast 154 177 6,300 480 Climbing Atlanta TRACON
01:21PM 34.0833 -84.5000 112° Southeast 151 174 6,900 300 Climbing Atlanta TRACON
01:22PM 34.0833 -84.4500 90° East 158 182 7,000  Climbing Atlanta TRACON
01:23PM 34.0667 -84.3833 107° East 171 197 7,000  Level Atlanta TRACON
01:24PM 34.0667 -84.3333 90° East 171 197 7,000  Level Atlanta TRACON
01:25PM 34.0667 -84.2833 90° East 173 199 7,000  Level Atlanta TRACON
01:26PM 34.0500 -84.2167 107° East 174 200 7,000  Level Atlanta TRACON
01:27PM 34.0500 -84.1500 90° East 172 198 7,000  Level Atlanta TRACON
01:28PM 34.0333 -84.1000 112° Southeast 172 198 7,000 120 Level Atlanta TRACON
01:30PM 34.0531 -84.0211 73° East 165 190 7,400 300 Climbing Atlanta Center
01:31PM 34.0739 -83.9886 52° Northeast 144 166 7,800 300 Climbing Atlanta Center
01:32PM 34.0947 -83.9486 58° Northeast 134 154 8,000 60 Climbing Atlanta Center
01:33PM 34.1197 -83.9083 53° Northeast 143 165 8,000 -60 Level Atlanta Center
01:34PM 34.1447 -83.8631 56° Northeast 149 171 7,900  Descending Atlanta Center
01:35PM 34.1697 -83.8178 56° Northeast 154 177 8,000 240 Climbing Atlanta Center
01:36PM 34.1925 -83.7803 54° Northeast 147 169 8,400 420 Climbing Atlanta Center
01:37PM 34.2156 -83.7400 55° Northeast 142 163 8,900 240 Climbing Atlanta Center
01:38PM 34.2425 -83.6944 54° Northeast 142 163 8,900  Level Atlanta Center
01:39PM 34.2633 -83.6492 61° Northeast 152 175 8,900  Level Atlanta Center
01:40PM 34.2903 -83.6064 53° Northeast 147 169 8,900  Level Atlanta Center
01:41PM 34.3172 -83.5633 53° Northeast 153 176 8,900  Level Atlanta Center
01:42PM 34.3400 -83.5181 59° Northeast 153 176 8,900  Level Atlanta Center
01:43PM 34.3689 -83.4700 54° Northeast 158 182 8,900  Level Atlanta Center
01:44PM 34.3939 -83.4269 55° Northeast 158 182 8,900  Level Atlanta Center
01:45PM 34.4186 -83.3842 55° Northeast 158 182 8,900  Level Atlanta Center
01:46PM 34.4456 -83.3386 54° Northeast 158 182 8,900  Level Atlanta Center
01:47PM 34.4703 -83.2956 55° Northeast 152 175 8,900  Level Atlanta Center
01:48PM 34.4972 -83.2475 56° Northeast 152 175 8,900  Level Atlanta Center
01:49PM 34.5239 -83.2017 55° Northeast 158 182 8,900  Level Atlanta Center
01:50PM 34.5486 -83.1611 53° Northeast 151 174 8,900  Level Atlanta Center
01:51PM 34.5733 -83.1131 58° Northeast 156 180 8,900  Level Atlanta Center
01:52PM 34.5981 -83.0722 54° Northeast 150 173 9,000  Climbing Atlanta Center
01:53PM 34.6208 -83.0242 60° Northeast 150 173 9,000  Level Atlanta Center
01:54PM 34.6369 -82.9733 69° East 150 173 9,000  Level Atlanta Center
01:55PM 34.6553 -82.9175 68° East 160 184 9,000  Level Atlanta Center
01:56PM 34.6714 -82.8694 68° East 165 190 9,000  Level Atlanta Center
01:57PM 34.6897 -82.8111 69° East 165 190 9,000 -60 Level Atlanta Center
01:58PM 34.7039 -82.7653 69° East 170 196 8,900 -300 Descending Atlanta Center
01:59PM 34.7242 -82.7119 65° Northeast 170 196 8,500 -540 Descending Atlanta Center
02:00PM 34.7422 -82.6536 69° East 175 201 7,900 -600 Descending Atlanta Center
02:01PM 34.7625 -82.5925 68° East 175 201 7,400 -240 Descending Atlanta Center
02:03PM 34.8062 -82.5280 50° Northeast  Level FlightAware Approximate
02:10PM 34.9894 -82.2566 50° Northeast  Level FlightAware Approximate
02:11PM 35.0155 -82.2177 51° Northeast  Level FlightAware Approximate
02:12PM 35.0416 -82.1788 51° Northeast  Level FlightAware Approximate
02:13PM 35.0677 -82.1399 51° Northeast  Level FlightAware Approximate
02:13PM 35.0642 -82.0722 51° Northeast 152 175 5,500  Level Atlanta Center
02:14PM 35.0938 -82.1009 51° Northeast  Level FlightAware Approximate
02:15PM 35.1199 -82.0619 51° Northeast  Level FlightAware Approximate
02:15PM 35.1114 -81.9980 52° Northeast  Level Estimated
02:16PM 35.1459 -82.0229 51° Northeast  Level FlightAware Approximate
02:17PM 35.1720 -81.9839 51° Northeast  Level FlightAware Approximate
02:18PM 35.1942 -81.8658 52° Northeast 150 173 5,000  Level Atlanta Center
02:19PM 35.2244 -81.8192 52° Northeast 152 175 5,000 -180 Level Atlanta Center
02:20PM 35.2508 -81.7703 57° Northeast 159 183 4,700 -480 Descending Atlanta Center
02:21PM 35.2558 -81.7089 84° East 182 209 4,100 -360 Descending Atlanta Center
02:22PM 35.2879 -81.7191 52° Northeast  Level Estimated
02:22PM 35.2886 -81.6672 46° Northeast 163 188 4,000  Level Atlanta Center
02:23PM 35.3131 -81.6791 52° Northeast  Level Estimated
02:23PM 35.3108 -81.6361 49° Northeast 151 174 4,000  Level Atlanta Center
02:24PM 35.3414 -81.5972 46° Northeast 151 174 4,000  Level Atlanta Center
02:25PM 35.3678 -81.5606 49° Northeast 166 191 4,000  Level Atlanta Center
02:26PM 35.3961 -81.5242 46° Northeast 160 184 4,000  Level Atlanta Center
02:27PM 35.4225 -81.4850 50° Northeast 149 171 4,000  Level Atlanta Center
02:28PM 35.4508 -81.4433 50° Northeast 149 171 4,000  Level Atlanta Center
02:29PM 35.4772 -81.4044 50° Northeast 149 171 4,000  Level Atlanta Center
02:30PM 35.5033 -81.3653 51° Northeast 149 171 4,000  Level Atlanta Center
02:31PM 35.5297 -81.3261 50° Northeast 144 166 4,000  Level Atlanta Center
02:32PM 35.5581 -81.2842 50° Northeast 144 166 4,000 -300 Level Atlanta Center
02:33PM 35.5864 -81.2425 50° Northeast 149 171 3,500 -360 Descending Atlanta Center
02:34PM 35.6144 -81.2006 51° Northeast 160 184 3,300 -120 Descending Atlanta Center
02:35PM 35.6408 -81.1614 50° Northeast 160 184 3,300  Level Atlanta Center
02:36PM 35.6647 -81.1197 55° Northeast 160 184 3,300  Level Atlanta Center
02:37PM 35.6889 -81.0806 53° Northeast 160 184 3,300  Level Atlanta Center